createdAt,value
2019-04-06T00:01:14.164Z,82.12
2019-04-06T00:03:44.141Z,81.81
2019-04-06T00:06:13.905Z,81.84
2019-04-06T00:08:43.706Z,81.66
2019-04-06T00:11:15.437Z,81.72
2019-04-06T00:13:45.277Z,81.91
2019-04-06T00:16:15.087Z,81.42
2019-04-06T00:18:45.367Z,81.71
2019-04-06T00:21:15.070Z,81.62
2019-04-06T00:23:44.922Z,81.78
2019-04-06T00:26:14.709Z,81.83
2019-04-06T00:28:44.491Z,81.76
2019-04-06T00:31:15.903Z,81.78
2019-04-06T00:33:45.736Z,82.20
2019-04-06T00:36:15.658Z,82.39
2019-04-06T00:38:45.518Z,81.91
2019-04-06T00:41:15.329Z,81.39
2019-04-06T00:43:45.152Z,81.52
2019-04-06T00:46:14.971Z,81.32
2019-04-06T00:48:44.657Z,81.57
2019-04-06T00:51:14.495Z,81.84
2019-04-06T00:53:44.244Z,82.18
2019-04-06T00:56:13.968Z,81.75
2019-04-06T00:58:43.680Z,82.16
2019-04-06T01:01:13.766Z,81.61
2019-04-06T01:03:43.681Z,81.57
2019-04-06T01:06:13.507Z,81.41
2019-04-06T01:08:43.390Z,81.71
2019-04-06T01:11:13.133Z,81.53
2019-04-06T01:13:42.971Z,81.71
2019-04-06T01:16:12.745Z,81.69
2019-04-06T01:18:42.590Z,81.73
2019-04-06T01:21:12.350Z,81.79
2019-04-06T01:23:42.203Z,81.47
2019-04-06T01:26:12.060Z,81.54
2019-04-06T01:28:41.774Z,81.82
2019-04-06T01:31:11.528Z,81.76
2019-04-06T01:33:41.300Z,81.37
2019-04-06T01:36:11.121Z,81.67
2019-04-06T01:38:41.026Z,81.44
2019-04-06T01:41:10.810Z,81.27
2019-04-06T01:43:40.550Z,81.25
2019-04-06T01:46:10.372Z,81.40
2019-04-06T01:48:40.198Z,81.31
2019-04-06T01:51:10.039Z,81.74
2019-04-06T01:53:39.850Z,81.59
2019-04-06T01:56:17.871Z,81.40
2019-04-06T01:58:41.122Z,81.77
2019-04-06T02:01:27.310Z,81.29
2019-04-06T02:03:57.030Z,81.44
2019-04-06T02:06:26.892Z,81.83
2019-04-06T02:08:56.712Z,82.13
2019-04-06T02:11:26.499Z,82.10
2019-04-06T02:13:56.255Z,81.09
2019-04-06T02:16:25.983Z,81.65
2019-04-06T02:18:55.718Z,81.65
2019-04-06T02:21:25.509Z,81.84
2019-04-06T02:23:55.376Z,81.91
2019-04-06T02:26:30.947Z,81.39
2019-04-06T02:28:56.701Z,80.97
2019-04-06T02:31:28.064Z,81.11
2019-04-06T02:33:59.525Z,81.30
2019-04-06T02:36:42.868Z,80.78
2019-04-06T02:39:30.249Z,80.94
2019-04-06T02:42:04.649Z,80.64
2019-04-06T02:44:34.417Z,80.85
2019-04-06T02:47:04.091Z,81.24
2019-04-06T02:49:33.799Z,81.48
2019-04-06T02:52:03.730Z,81.71
2019-04-06T02:54:33.522Z,81.96
2019-04-06T02:57:03.536Z,81.92
2019-04-06T02:59:33.450Z,81.30
2019-04-06T03:02:03.195Z,81.56
2019-04-06T03:04:33.125Z,81.47
2019-04-06T03:07:02.977Z,81.53
2019-04-06T03:09:32.836Z,81.09
2019-04-06T03:12:02.973Z,81.44
2019-04-06T03:14:32.891Z,81.56
2019-04-06T03:17:02.726Z,81.19
2019-04-06T03:19:32.650Z,81.02
2019-04-06T03:22:02.480Z,81.41
2019-04-06T03:24:32.285Z,81.73
2019-04-06T03:27:02.951Z,81.37
2019-04-06T03:29:33.014Z,81.42
2019-04-06T03:32:02.721Z,81.68
2019-04-06T03:34:32.487Z,81.70
2019-04-06T03:37:02.301Z,81.57
2019-04-06T03:39:32.358Z,81.85
2019-04-06T03:42:02.277Z,81.25
2019-04-06T03:44:32.058Z,81.36
2019-04-06T03:47:01.761Z,81.65
2019-04-06T03:49:31.680Z,81.48
2019-04-06T03:52:01.352Z,81.67
2019-04-06T03:54:31.056Z,81.94
2019-04-06T03:57:13.969Z,82.12
2019-04-06T03:59:32.098Z,82.26
2019-04-06T04:02:01.965Z,81.93
2019-04-06T04:04:31.506Z,81.77
2019-04-06T04:07:01.330Z,81.77
2019-04-06T04:09:31.066Z,81.94
2019-04-06T04:12:00.861Z,81.73
2019-04-06T04:14:30.515Z,81.76
2019-04-06T04:17:00.340Z,81.80
2019-04-06T04:19:30.016Z,81.25
2019-04-06T04:21:59.777Z,81.74
2019-04-06T04:24:29.478Z,81.76
2019-04-06T04:26:59.291Z,81.70
2019-04-06T04:29:29.009Z,82.14
2019-04-06T04:31:58.708Z,81.78
2019-04-06T04:34:28.619Z,81.63
2019-04-06T04:36:58.626Z,81.68
2019-04-06T04:39:28.469Z,82.00
2019-04-06T04:41:58.216Z,81.83
2019-04-06T04:44:27.979Z,82.21
2019-04-06T04:46:57.676Z,81.57
2019-04-06T04:49:27.373Z,81.35
2019-04-06T04:51:57.055Z,81.62
2019-04-06T04:54:26.890Z,81.84
2019-04-06T04:56:56.598Z,82.54
2019-04-06T04:59:26.343Z,81.84
2019-04-06T05:01:56.048Z,81.95
2019-04-06T05:04:25.747Z,82.20
2019-04-06T05:06:55.461Z,82.40
2019-04-06T05:09:25.139Z,81.72
2019-04-06T05:11:54.827Z,81.58
2019-04-06T05:14:57.333Z,82.12
2019-04-06T05:17:27.475Z,82.11
2019-04-06T05:19:57.828Z,82.13
2019-04-06T05:22:27.771Z,82.69
2019-04-06T05:24:57.822Z,82.71
2019-04-06T05:27:27.728Z,82.65
2019-04-06T05:29:57.533Z,82.75
2019-04-06T05:32:27.440Z,82.02
2019-04-06T05:34:58.383Z,82.00
2019-04-06T05:37:28.301Z,81.69
2019-04-06T05:39:57.962Z,82.24
2019-04-06T05:42:27.705Z,82.18
2019-04-06T05:44:57.375Z,82.54
2019-04-06T05:47:27.149Z,82.29
2019-04-06T05:49:57.139Z,82.29
2019-04-06T05:52:27.111Z,81.79
2019-04-06T05:54:56.869Z,81.48
2019-04-06T05:57:26.968Z,81.50
2019-04-06T05:59:56.776Z,81.37
2019-04-06T06:02:26.882Z,81.13
2019-04-06T06:04:56.773Z,80.82
2019-04-06T06:07:26.482Z,81.16
2019-04-06T06:09:56.197Z,81.08
2019-04-06T06:12:25.871Z,80.23
2019-04-06T06:14:55.635Z,80.42
2019-04-06T06:17:25.586Z,80.26
2019-04-06T06:19:55.298Z,80.25
2019-04-06T06:22:24.993Z,80.57
2019-04-06T06:24:54.747Z,80.30
2019-04-06T06:27:24.556Z,80.09
2019-04-06T06:29:54.222Z,80.02
2019-04-06T06:32:23.949Z,79.06
2019-04-06T06:34:53.661Z,78.96
2019-04-06T06:37:23.425Z,79.09
2019-04-06T06:39:53.434Z,78.98
2019-04-06T06:42:23.190Z,79.30
2019-04-06T06:44:53.227Z,79.42
2019-04-06T06:47:22.962Z,78.71
2019-04-06T06:49:52.852Z,78.11
2019-04-06T06:52:22.532Z,77.86
2019-04-06T06:54:52.555Z,78.37
2019-04-06T06:57:22.246Z,77.66
2019-04-06T06:59:52.122Z,77.88
2019-04-06T07:02:22.016Z,78.27
2019-04-06T07:04:51.691Z,77.93
2019-04-06T07:07:21.409Z,77.92
2019-04-06T07:09:51.165Z,77.04
2019-04-06T07:12:20.848Z,77.59
2019-04-06T07:14:50.799Z,77.90
2019-04-06T07:17:20.603Z,77.83
2019-04-06T07:19:50.255Z,76.97
2019-04-06T07:22:19.988Z,76.24
2019-04-06T07:24:49.903Z,76.44
2019-04-06T07:27:19.578Z,76.78
2019-04-06T07:29:49.297Z,75.99
2019-04-06T07:32:19.108Z,76.28
2019-04-06T07:34:50.494Z,76.29
2019-04-06T07:37:20.427Z,75.75
2019-04-06T07:39:50.204Z,75.69
2019-04-06T07:42:20.068Z,74.80
2019-04-06T07:44:49.986Z,74.38
2019-04-06T07:47:19.918Z,73.28
2019-04-06T07:49:49.646Z,74.00
2019-04-06T07:52:19.671Z,73.96
2019-04-06T07:54:49.926Z,73.59
2019-04-06T07:57:19.635Z,73.79
2019-04-06T07:59:49.323Z,73.28
2019-04-06T08:02:19.101Z,73.13
2019-04-06T08:04:48.852Z,73.17
2019-04-06T08:07:18.534Z,72.85
2019-04-06T08:09:48.336Z,72.36
2019-04-06T08:12:18.118Z,71.47
2019-04-06T08:14:48.201Z,71.74
2019-04-06T08:17:17.936Z,71.45
2019-04-06T08:19:47.577Z,70.92
2019-04-06T08:22:17.424Z,71.02
2019-04-06T08:24:47.134Z,70.72
2019-04-06T08:27:16.991Z,70.57
2019-04-06T08:29:46.721Z,70.32
2019-04-06T08:32:16.548Z,70.06
2019-04-06T08:34:46.264Z,69.88
2019-04-06T08:37:15.945Z,69.71
2019-04-06T08:39:45.875Z,69.29
2019-04-06T08:42:15.593Z,69.05
2019-04-06T08:44:45.639Z,68.72
2019-04-06T08:47:15.315Z,68.70
2019-04-06T08:49:45.163Z,68.51
2019-04-06T08:52:14.927Z,68.19
2019-04-06T08:54:45.717Z,67.33
2019-04-06T08:57:15.388Z,66.62
2019-04-06T08:59:45.246Z,66.64
2019-04-06T09:02:15.032Z,66.59
2019-04-06T09:04:44.792Z,66.05
2019-04-06T09:07:14.976Z,63.38
2019-04-06T09:09:44.805Z,63.97
2019-04-06T09:12:14.500Z,62.30
2019-04-06T09:14:44.451Z,63.71
2019-04-06T09:17:14.343Z,62.05
2019-04-06T09:19:44.258Z,62.14
2019-04-06T09:22:14.248Z,61.79
2019-04-06T09:24:44.203Z,61.78
2019-04-06T09:27:14.003Z,61.83
2019-04-06T09:29:43.848Z,61.46
2019-04-06T09:32:13.705Z,59.82
2019-04-06T09:34:43.664Z,60.32
2019-04-06T09:37:13.426Z,60.21
2019-04-06T09:39:43.128Z,59.44
2019-04-06T09:42:13.061Z,58.72
2019-04-06T09:44:48.353Z,58.84
2019-04-06T09:47:22.344Z,59.60
2019-04-06T09:50:09.858Z,60.08
2019-04-06T09:52:41.280Z,60.30
2019-04-06T09:55:12.703Z,60.49
2019-04-06T09:57:46.969Z,59.47
2019-04-06T10:00:21.952Z,59.99
2019-04-06T10:03:05.745Z,59.71
2019-04-06T10:05:37.308Z,59.91
2019-04-06T10:08:22.779Z,59.50
2019-04-06T10:11:02.776Z,60.46
2019-04-06T10:13:40.115Z,60.17
2019-04-06T10:16:14.129Z,60.58
2019-04-06T10:18:46.761Z,61.40
2019-04-06T10:21:16.406Z,61.36
2019-04-06T10:23:50.973Z,61.99
2019-04-06T10:26:20.531Z,62.27
2019-04-06T10:28:57.600Z,62.10
2019-04-06T10:31:43.468Z,62.07
2019-04-06T10:34:25.195Z,61.88
2019-04-06T10:36:56.683Z,62.06
2019-04-06T10:39:30.880Z,62.20
2019-04-06T10:42:05.214Z,62.75
2019-04-06T10:44:52.785Z,62.77
2019-04-06T10:47:26.936Z,63.16
2019-04-06T10:50:04.685Z,63.07
2019-04-06T10:52:41.694Z,63.21
2019-04-06T10:55:29.288Z,63.20
2019-04-06T10:58:04.843Z,62.80
2019-04-06T11:00:38.807Z,62.74
2019-04-06T11:03:10.163Z,62.51
2019-04-06T11:05:57.215Z,61.68
2019-04-06T11:08:34.468Z,59.50
2019-04-06T11:11:05.911Z,60.16
2019-04-06T11:13:38.012Z,60.50
2019-04-06T11:16:25.679Z,60.90
2019-04-06T11:19:06.225Z,60.29
2019-04-06T11:21:44.932Z,60.45
2019-04-06T11:24:16.600Z,60.02
2019-04-06T11:26:46.101Z,59.81
2019-04-06T11:29:24.891Z,59.82
2019-04-06T11:31:56.291Z,60.03
2019-04-06T11:34:33.345Z,60.58
2019-04-06T11:37:20.828Z,59.91
2019-04-06T11:40:08.365Z,59.93
2019-04-06T11:42:55.815Z,59.99
2019-04-06T11:45:39.525Z,59.58
2019-04-06T11:48:11.759Z,60.19
2019-04-06T11:51:01.218Z,60.84
2019-04-06T11:53:35.220Z,61.32
2019-04-06T11:56:15.614Z,60.52
2019-04-06T11:59:03.651Z,59.75
2019-04-06T12:01:35.174Z,60.17
2019-04-06T12:04:09.498Z,60.45
2019-04-06T12:06:41.184Z,60.17
2019-04-06T12:09:12.857Z,59.65
2019-04-06T12:11:44.396Z,59.66
2019-04-06T12:14:22.060Z,60.01
2019-04-06T12:16:53.624Z,59.98
2019-04-06T12:19:27.971Z,60.22
2019-04-06T12:22:00.505Z,60.20
2019-04-06T12:24:40.725Z,59.67
2019-04-06T12:27:28.031Z,59.08
2019-04-06T12:29:57.573Z,59.04
2019-04-06T12:32:47.403Z,59.26
2019-04-06T12:35:34.400Z,59.41
2019-04-06T12:38:08.755Z,58.30
2019-04-06T12:40:41.183Z,57.97
2019-04-06T12:43:31.297Z,58.24
2019-04-06T12:46:17.978Z,57.73
2019-04-06T12:48:52.536Z,57.76
2019-04-06T12:51:39.585Z,56.95
2019-04-06T13:32:13.378Z,56.64
2019-04-06T13:34:47.691Z,55.27
2019-04-06T13:37:17.478Z,55.87
2019-04-06T13:39:52.117Z,55.38
2019-04-06T13:42:32.487Z,55.24
2019-04-06T13:45:03.963Z,55.51
2019-04-06T13:47:33.569Z,56.10
2019-04-06T13:50:15.846Z,56.12
2019-04-06T13:52:47.158Z,55.73
2019-04-06T13:55:25.535Z,54.49
2019-04-06T13:57:59.462Z,54.94
2019-04-06T14:00:46.951Z,55.15
2019-04-06T14:03:23.935Z,54.26
2019-04-06T14:05:58.431Z,53.32
2019-04-06T14:08:38.632Z,51.72
2019-04-06T14:11:08.196Z,51.81
2019-04-06T14:13:51.529Z,52.50
2019-04-06T14:16:28.875Z,52.46
2019-04-06T14:19:16.298Z,52.47
2019-04-06T14:21:50.757Z,53.27
2019-04-06T14:24:22.802Z,53.25
2019-04-06T14:27:01.895Z,53.97
2019-04-06T14:29:51.621Z,54.36
2019-04-06T14:32:25.951Z,54.52
2019-04-06T14:35:12.033Z,54.64
2019-04-06T14:37:53.687Z,54.77
2019-04-06T14:40:29.252Z,55.49
2019-04-06T14:43:08.096Z,55.40
2019-04-06T14:45:40.220Z,56.08
2019-04-06T14:48:15.431Z,55.31
2019-04-06T14:50:49.634Z,55.33
2019-04-06T14:53:23.986Z,55.10
2019-04-06T14:55:55.638Z,54.73
2019-04-06T14:58:30.196Z,54.06
2019-04-06T15:01:10.875Z,54.47
2019-04-06T15:03:59.062Z,55.02
2019-04-06T15:06:28.673Z,54.44
2019-04-06T15:09:01.044Z,54.90
2019-04-06T15:11:30.707Z,54.36
2019-04-06T15:14:00.211Z,53.84
2019-04-06T15:16:45.008Z,54.04
2019-04-06T15:19:18.016Z,53.28
2019-04-06T15:22:01.562Z,53.14
2019-04-06T15:24:32.929Z,53.81
2019-04-06T15:27:05.053Z,53.30
2019-04-06T15:29:48.303Z,52.60
2019-04-06T15:32:30.078Z,52.53
2019-04-06T15:35:17.438Z,51.97
2019-04-06T15:37:49.322Z,52.32
2019-04-06T15:40:29.929Z,52.45
2019-04-06T15:43:10.236Z,52.03
2019-04-06T15:45:48.073Z,52.36
2019-04-06T15:48:20.399Z,52.61
2019-04-06T15:50:52.378Z,52.42
2019-04-06T15:53:21.881Z,52.08
2019-04-06T15:55:59.420Z,52.50
2019-04-06T15:58:30.788Z,52.77
2019-04-06T16:01:09.365Z,52.92
2019-04-06T16:03:47.524Z,52.87
2019-04-06T16:06:19.716Z,52.50
2019-04-06T16:08:57.110Z,53.07
2019-04-06T16:11:28.644Z,53.17
2019-04-06T16:14:08.509Z,53.00
2019-04-06T16:16:41.026Z,53.03
2019-04-06T16:19:15.333Z,52.92
2019-04-06T16:21:49.689Z,52.80
2019-04-06T16:24:23.950Z,52.86
2019-04-06T16:26:55.385Z,52.68
2019-04-06T16:29:32.974Z,52.91
2019-04-06T16:32:15.041Z,53.15
2019-04-06T16:34:47.143Z,53.60
2019-04-06T16:37:18.493Z,53.42
2019-04-06T16:39:53.577Z,53.46
2019-04-06T16:42:37.367Z,53.43
2019-04-06T16:45:12.377Z,53.17
2019-04-06T16:48:02.155Z,53.56
2019-04-06T16:50:42.683Z,53.82
2019-04-06T16:53:25.869Z,54.09
2019-04-06T16:56:15.097Z,54.21
2019-04-06T16:58:55.384Z,53.71
2019-04-06T17:01:35.614Z,54.47
2019-04-06T17:04:23.782Z,54.55
2019-04-06T17:07:00.785Z,54.65
2019-04-06T17:09:34.447Z,54.56
2019-04-06T17:12:06.383Z,54.30
2019-04-06T17:14:54.189Z,54.79
2019-04-06T17:17:41.889Z,54.43
2019-04-06T17:20:13.663Z,54.88
2019-04-06T17:23:01.209Z,55.45
2019-04-06T17:25:33.003Z,55.61
2019-04-06T17:28:20.169Z,55.61
2019-04-06T17:30:51.927Z,56.00
2019-04-06T17:33:23.571Z,57.62
2019-04-06T17:35:55.271Z,58.23
2019-04-06T17:38:39.765Z,59.23
2019-04-06T17:41:11.398Z,59.93
2019-04-06T17:43:58.991Z,60.39
2019-04-06T17:46:31.569Z,60.70
2019-04-06T17:49:03.413Z,60.99
2019-04-06T17:51:37.335Z,61.61
2019-04-06T17:54:24.752Z,61.84
2019-04-06T17:57:12.311Z,62.66
2019-04-06T18:00:00.065Z,62.55
2019-04-06T18:02:31.532Z,62.59
2019-04-06T18:05:05.627Z,62.89
2019-04-06T18:07:37.055Z,63.35
2019-04-06T18:10:09.351Z,64.14
2019-04-06T18:12:56.744Z,63.86
2019-04-06T18:15:26.613Z,64.32
2019-04-06T18:17:56.441Z,64.66
2019-04-06T18:20:26.302Z,64.71
2019-04-06T18:22:56.140Z,64.67
2019-04-06T18:25:25.864Z,64.79
2019-04-06T18:27:56.186Z,64.71
2019-04-06T18:30:25.987Z,65.10
2019-04-06T18:33:07.213Z,65.66
2019-04-06T18:35:37.135Z,65.48
2019-04-06T18:38:20.968Z,65.42
2019-04-06T18:40:51.484Z,65.46
2019-04-06T18:43:21.733Z,66.13
2019-04-06T18:45:51.508Z,66.86
2019-04-06T18:48:21.362Z,67.26
2019-04-06T18:50:51.748Z,67.49
2019-04-06T18:53:21.997Z,67.64
2019-04-06T18:55:51.993Z,67.72
2019-04-06T18:58:22.046Z,67.60
2019-04-06T19:00:51.862Z,67.76
2019-04-06T19:03:22.012Z,68.39
2019-04-06T19:05:52.197Z,68.81
2019-04-06T19:08:21.915Z,69.32
2019-04-06T19:10:52.560Z,69.81
2019-04-06T19:13:23.221Z,69.82
2019-04-06T19:15:53.548Z,69.41
2019-04-06T19:18:23.225Z,69.83
2019-04-06T19:20:53.001Z,70.34
2019-04-06T19:23:22.961Z,70.75
2019-04-06T19:25:52.822Z,71.02
2019-04-06T19:28:22.551Z,70.40
2019-04-06T19:30:52.365Z,69.90
2019-04-06T19:33:25.458Z,69.91
2019-04-06T19:35:53.597Z,69.63
2019-04-06T19:38:23.400Z,69.06
2019-04-06T19:40:53.135Z,69.11
2019-04-06T19:43:22.946Z,69.27
2019-04-06T19:45:52.947Z,69.48
2019-04-06T19:48:22.843Z,69.69
2019-04-06T19:50:53.195Z,70.07
2019-04-06T19:53:23.267Z,70.41
2019-04-06T19:55:53.119Z,69.95
2019-04-06T19:58:22.958Z,69.96
2019-04-06T20:00:52.791Z,69.97
2019-04-06T20:03:33.678Z,70.06
2019-04-06T20:05:54.255Z,69.95
2019-04-06T20:08:24.160Z,70.20
2019-04-06T20:10:54.330Z,69.88
2019-04-06T20:13:24.830Z,70.35
2019-04-06T20:15:54.731Z,70.19
2019-04-06T20:18:24.622Z,70.33
2019-04-06T20:20:55.187Z,70.55
2019-04-06T20:23:25.394Z,70.58
2019-04-06T20:25:55.667Z,70.83
2019-04-06T20:28:25.529Z,71.04
2019-04-06T20:30:55.523Z,71.34
2019-04-06T20:33:25.194Z,71.47
2019-04-06T20:35:55.452Z,71.87
2019-04-06T20:38:25.163Z,71.46
2019-04-06T20:40:55.013Z,71.24
2019-04-06T20:43:24.865Z,71.43
2019-04-06T20:45:55.326Z,71.46
2019-04-06T20:48:25.056Z,71.77
2019-04-06T20:50:55.098Z,71.87
2019-04-06T20:53:25.295Z,72.17
2019-04-06T20:55:55.352Z,72.19
2019-04-06T20:58:25.003Z,72.50
2019-04-06T21:00:56.441Z,72.38
2019-04-06T21:03:26.544Z,73.06
2019-04-06T21:05:56.494Z,73.08
2019-04-06T21:08:26.413Z,72.99
2019-04-06T21:10:56.627Z,73.37
2019-04-06T21:13:26.746Z,73.42
2019-04-06T21:15:56.635Z,73.34
2019-04-06T21:18:26.685Z,73.64
2019-04-06T21:20:56.403Z,73.47
2019-04-06T21:23:26.313Z,73.87
2019-04-06T21:25:56.094Z,73.84
2019-04-06T21:28:26.002Z,73.85
2019-04-06T21:30:56.489Z,74.05
2019-04-06T21:33:26.706Z,74.21
2019-04-06T21:35:56.583Z,74.64
2019-04-06T21:38:26.735Z,74.41
2019-04-06T21:40:57.022Z,74.67
2019-04-06T21:43:26.797Z,74.59
2019-04-06T21:45:56.823Z,75.23
2019-04-06T21:48:27.015Z,75.66
2019-04-06T21:50:57.244Z,75.60
2019-04-06T21:53:27.472Z,75.61
2019-04-06T21:56:04.159Z,75.38
2019-04-06T21:58:29.738Z,74.99
2019-04-06T22:01:01.401Z,75.17
2019-04-06T22:03:31.430Z,75.79
2019-04-06T22:06:01.541Z,76.16
2019-04-06T22:08:31.768Z,76.03
2019-04-06T22:11:01.792Z,75.52
2019-04-06T22:13:31.819Z,75.71
2019-04-06T22:16:01.879Z,75.75
2019-04-06T22:18:31.739Z,76.05
2019-04-06T22:21:01.509Z,75.91
2019-04-06T22:23:40.990Z,76.03
2019-04-06T22:26:03.173Z,76.11
2019-04-06T22:28:33.245Z,75.82
2019-04-06T22:31:03.155Z,76.25
2019-04-06T22:33:33.165Z,76.27
2019-04-06T22:36:03.288Z,75.66
2019-04-06T22:38:33.183Z,75.69
2019-04-06T22:41:03.554Z,75.40
2019-04-06T22:43:33.459Z,75.35
2019-04-06T22:46:03.266Z,75.37
2019-04-06T22:48:33.560Z,75.29
2019-04-06T22:51:03.472Z,75.16
2019-04-06T22:53:33.349Z,75.23
2019-04-06T22:56:03.400Z,74.69
2019-04-06T22:58:33.400Z,74.73
2019-04-06T23:01:05.404Z,74.38
2019-04-06T23:03:36.960Z,74.22
2019-04-06T23:06:10.876Z,74.47
2019-04-06T23:08:40.728Z,73.80
2019-04-06T23:11:10.555Z,74.23
2019-04-06T23:13:40.372Z,74.04
2019-04-06T23:16:10.358Z,73.43
2019-04-06T23:18:40.186Z,73.16
2019-04-06T23:21:09.992Z,72.74
2019-04-06T23:23:39.796Z,72.66
2019-04-06T23:26:10.070Z,72.45
2019-04-06T23:28:39.921Z,72.52
2019-04-06T23:31:09.737Z,72.49
2019-04-06T23:33:39.669Z,72.30
2019-04-06T23:36:09.965Z,72.19
2019-04-06T23:38:39.834Z,72.36
2019-04-06T23:41:09.786Z,72.20
2019-04-06T23:43:39.677Z,72.30
2019-04-06T23:46:09.833Z,72.20
2019-04-06T23:48:39.667Z,72.17
2019-04-06T23:51:09.491Z,72.41
2019-04-06T23:53:39.866Z,72.01
2019-04-06T23:56:10.118Z,71.96
2019-04-06T23:58:39.988Z,72.04
